Airfield :
LOGIN :

Register | Disclaimer

   EN    FR    IT 

 










Legend :    VFR   Marginal VFR   IFR   Intensive IFR   Very Intensive IFR
Visi :
Ceiling :
>= 8 km
>= 3000ft
5 to 8 km
1000 to 3000 ft
1500m to 5 km
500 to 1000 ft
800 to 1500m
200 to 500 ft
< 800m
< 200 ft
Symbols :   Thunderstorms  Fog  Heavy snow  Heavy precipitations  Wind > 20 kt
SIGMETs :     Misc.  Thunderstorms  Icing  Turbulence  Mountain Waves  Volcanic Ashes






- Airport Elevation : 184 ft
- IATA code : BRU


EBBR - Bruxelles

CURRENT METAR :
  • 310320Z 18004KT CAVOK 11/10 Q1022 NOSIG

EXPIRED METARs :
  • 310250Z 20006KT 9999 FEW010 12/11 Q1022 NOSIG
  • 310220Z 21008KT 9999 FEW010 12/11 Q1022 NOSIG
  • 310150Z 21009KT 9999 FEW009 12/11 Q1022 NOSIG
  • 310120Z 21008KT 9999 BKN008 BKN048 13/11 Q1023 NOSIG
  • 310050Z 21010KT 9999 BKN007 13/12 Q1023 NOSIG

TAF TAF EBBR
Valid from the 31 at 00:00 until the 01 at 06:00 UTC


302307Z 3100/0106 19008KT 9999 BKN025
TEMPO 3113/3120 19015G25KT
TEMPO 3117/0102 4000 RA SHRA BKN012



MET'MAP, your aeronautical weather chart ! - Copyright ORBIFLY December 2007 - Disclaimer

ORBIFLY MET'MAP TEAM :

Programming & Development : Alexandra Zaïnal
Concept & original design : Baudouin d'Aumeries
Assistance for programming : Marc-Olivier Méhu
Technical & hardware support : Manuel Goepfert

Contact : metmap@orbifly.com




SOURCES & CREDITS :

   NOAA